ASN logo
Last updated: 21 March 2019
Estado:Preliminar
Fecha:domingo 10 marzo 2019
Hora:08:44
Tipo:Silhouette image of generic B38M model; specific model in this crash may look slightly different
Boeing 737 MAX 8
Operador:Ethiopian Airlines
Registración: ET-AVJ
Numéro de série: 62450/7243
Año de Construcción: 2018-10-30 (4 months)
Motores: 2 CFMI LEAP-1B
Tripulación:Fatalidades: 8 / Ocupantes: 8
Pasajeros:Fatalidades: 149 / Ocupantes: 149
Total:Fatalidades: 157 / Ocupantes: 157
Daños en la Aeronave: Destruido
Consecuencias: Written off (damaged beyond repair)
Ubicación:50 km (31.3 milles) ESE of Addis Ababa-Bole Airport (ADD) (   Etiopía)
Fase: En ruta (ENR)
Naturaleza:Vuelo Internacional Programado
Aeropuerto de Salida:Addis Ababa-Bole Airport (ADD/HAAB), Etiopía
Aeropuerto de Llegada:Nairobi-Jomo Kenyatta International Airport (NBO/HKJK), Kenia
Número de Vuelo:ET302
Descripción:
Ethiopian Airlines flight ET302, a Boeing 737 MAX 8, crashed shortly after takeoff from Addis Ababa-Bole Airport, Ethiopia. There were no survivors among the 157 occupants.
The aircraft took off from runway 07R at Bole Airport at 05:38 UTC (08:38 local time). The airline reports that contact was lost at 08:44 local time.
In a press conference the CEO of Ethiopian Airlines stated that the pilot reported difficulties with the aircraft to ATC. He was given clearance to return to the airport.
Weather at the time of the accident was fine with a visibility of 10+ km, few clouds at 2500 feet.

Fuentes:
» Ethiopian Airlines

METAR Weather report:
05:00 UTC / 08:00 local time:
HAAB 100500Z 06008KT 9999 FEW025 16/10 Q1029

06:00 UTC / 09:00 local time:
HAAB 100600Z 07010KT 9999 FEW025 18/09 Q1029


Subsiguiente / acciones de seguridad

EASA issued 1 Emergency Airworthiness Directive

Show all...

Fotos

photo of Boeing 737 MAX 8 ET-AVJ
photo of Boeing 737 MAX 8 ET-AVJ
photo of Boeing 737 MAX 8 ET-AVJ
descent towards Addis Ababa
Add your photo of this accident or aircraft
 

Video, social media

Aircraft history
date registration operator remarks
30 Oct. 2018 N1786B Boeing first flight
15-17 Nov. 2018 ET-AVJ Ethiopian Airlines delivered BFI-DUB-ADD
17 Nov. 2018 ET-AVJ Ethiopian Airlines first commercial service ADD-DXB

Map
This map shows the airport of departure and the intended destination of the flight. The line between the airports does not display the exact flight path.
Distance from Addis Ababa-Bole Airport to Nairobi-Jomo Kenyatta International Airport as the crow flies is 1158 km (723 miles).
Accident location: Approximate; accuracy within a few kilometers.

This information is not presented as the Flight Safety Foundation or the Aviation Safety Network’s opinion as to the cause of the accident. It is preliminary and is based on the facts as they are known at this time.
languages: languages

Share

Boeing 737-8 MAX

  • 350+ built
  • 2nd loss
  • 2nd accidente fatal
  • 2nd worst accident
» safety profile

 Etiopía
  • The worst accident
» safety profile